Time;durP1;ratioP1;P1;durP2;ratioP2;P2;SDS_P1;SDS_P2;PMS_P1;PMS_P2;Temp;Humidity;BMP_temperature;BMP_pressure;BME280_temperature;BME280_humidity;BME280_pressure;Samples;Min_cycle;Max_cycle;Signal;HPM_P1;HPM_P2
2022/02/26 00:01:34;;;;;;;12.52;1.90;;;1.80;99.90;;;;;;5055523;28;20412;-90
2022/02/26 00:04:01;;;;;;;10.75;2.17;;;1.70;99.90;;;;;;5055419;28;20127;-90
2022/02/26 00:06:27;;;;;;;12.95;2.55;;;1.70;99.90;;;;;;5055212;28;20052;-90
2022/02/26 00:08:55;;;;;;;5.05;1.35;;;1.60;99.90;;;;;;5055472;28;20470;-90
2022/02/26 00:11:22;;;;;;;15.40;2.58;;;1.70;99.90;;;;;;5055574;28;20053;-90
2022/02/26 00:13:48;;;;;;;11.80;1.92;;;1.90;99.90;;;;;;5055529;28;20056;-90
2022/02/26 00:16:15;;;;;;;11.93;2.03;;;2.00;99.90;;;;;;5055643;28;20055;-90
2022/02/26 00:18:42;;;;;;;15.18;2.08;;;2.20;99.90;;;;;;5055373;28;20076;-90
2022/02/26 00:21:09;;;;;;;12.23;2.08;;;2.30;99.90;;;;;;5055436;28;20053;-90
2022/02/26 00:23:36;;;;;;;9.70;1.92;;;2.30;99.90;;;;;;5055169;28;20127;-89
2022/02/26 00:26:04;;;;;;;7.45;1.98;;;2.40;99.90;;;;;;5054956;28;20478;-90
2022/02/26 00:28:33;;;;;;;9.80;1.85;;;2.50;99.90;;;;;;5054433;28;20424;-90
2022/02/26 00:31:00;;;;;;;9.80;1.92;;;2.60;99.90;;;;;;5053213;28;20513;-90
2022/02/26 00:33:27;;;;;;;12.00;2.17;;;2.60;99.90;;;;;;5054833;28;20476;-90
2022/02/26 00:35:58;;;;;;;5.15;1.55;;;2.70;99.90;;;;;;5056153;28;20060;-90
2022/02/26 00:38:26;;;;;;;9.55;1.80;;;2.80;99.90;;;;;;5055098;28;20049;-90
2022/02/26 00:40:53;;;;;;;9.27;1.83;;;2.90;99.90;;;;;;5056071;28;20071;-90
2022/02/26 00:43:21;;;;;;;6.88;1.85;;;2.80;99.90;;;;;;5055189;28;20056;-89
2022/02/26 00:45:48;;;;;;;10.70;1.80;;;2.90;99.90;;;;;;5055539;28;20053;-90
2022/02/26 00:48:15;;;;;;;10.77;1.50;;;3.00;99.90;;;;;;5055101;28;20101;-90
2022/02/26 00:50:42;;;;;;;8.65;1.77;;;3.00;99.90;;;;;;5054826;28;20053;-90
2022/02/26 00:53:08;;;;;;;10.70;1.50;;;3.00;99.90;;;;;;5056225;28;20049;-90
2022/02/26 00:55:35;;;;;;;7.28;1.83;;;2.70;99.90;;;;;;5054592;28;20048;-89
2022/02/26 00:58:04;;;;;;;7.60;1.88;;;2.50;99.90;;;;;;5054764;28;20044;-90
2022/02/26 01:00:31;;;;;;;11.23;2.17;;;2.40;99.90;;;;;;5053105;28;20048;-89
2022/02/26 01:02:57;;;;;;;9.18;2.50;;;2.20;99.90;;;;;;5055854;28;20099;-90
2022/02/26 01:05:25;;;;;;;10.93;2.22;;;2.20;99.90;;;;;;5056388;28;20049;-89
2022/02/26 01:07:52;;;;;;;15.07;1.90;;;2.00;99.90;;;;;;5054815;28;20071;-89
2022/02/26 01:10:18;;;;;;;15.73;2.35;;;1.90;99.90;;;;;;5053999;28;20045;-89
2022/02/26 01:12:45;;;;;;;11.98;2.35;;;1.80;99.90;;;;;;5054396;28;20055;-89
2022/02/26 01:15:12;;;;;;;11.80;2.10;;;1.90;99.90;;;;;;5054816;28;20049;-89
2022/02/26 01:17:39;;;;;;;17.52;2.30;;;2.00;99.90;;;;;;5054843;28;20049;-90
2022/02/26 01:20:06;;;;;;;14.45;2.22;;;2.10;99.90;;;;;;5054342;28;20048;-90
2022/02/26 01:22:33;;;;;;;10.95;2.20;;;2.20;99.90;;;;;;5054525;28;20132;-89
2022/02/26 01:25:00;;;;;;;19.75;2.45;;;2.20;99.90;;;;;;5054552;28;20053;-89
2022/02/26 01:27:26;;;;;;;17.27;2.47;;;2.20;99.90;;;;;;5053860;28;20120;-89
2022/02/26 01:29:53;;;;;;;13.32;2.53;;;2.10;99.90;;;;;;5054362;28;20052;-89
2022/02/26 01:32:20;;;;;;;16.45;2.25;;;2.10;99.90;;;;;;5054071;28;20055;-89
2022/02/26 01:34:47;;;;;;;17.85;2.10;;;2.00;99.90;;;;;;5054219;28;20110;-89
2022/02/26 01:37:14;;;;;;;10.88;2.88;;;2.10;99.90;;;;;;5053868;28;20084;-88
2022/02/26 01:39:41;;;;;;;8.30;1.92;;;2.10;99.90;;;;;;5053788;28;20052;-89
2022/02/26 01:42:08;;;;;;;15.65;3.72;;;2.00;99.90;;;;;;5054036;28;20051;-89
2022/02/26 01:44:36;;;;;;;12.77;2.13;;;1.90;99.90;;;;;;5053701;28;20095;-89
2022/02/26 01:47:06;;;;;;;15.02;2.75;;;1.90;99.90;;;;;;5054051;28;20643;-89
2022/02/26 01:49:33;;;;;;;14.35;2.03;;;1.90;99.90;;;;;;5053850;28;20126;-89
2022/02/26 01:51:59;;;;;;;11.95;2.20;;;2.00;99.90;;;;;;5053677;28;20055;-89
2022/02/26 01:54:26;;;;;;;15.07;2.50;;;2.10;99.90;;;;;;5054087;28;20049;-88
2022/02/26 01:56:54;;;;;;;12.27;2.15;;;2.10;99.90;;;;;;5053733;28;20057;-88
2022/02/26 01:59:20;;;;;;;9.73;1.77;;;2.20;99.90;;;;;;5053702;28;20055;-89
2022/02/26 02:01:47;;;;;;;11.48;1.77;;;2.30;99.90;;;;;;5053598;28;20072;-89
2022/02/26 02:04:15;;;;;;;12.98;2.65;;;2.20;99.90;;;;;;5053618;28;20144;-89
2022/02/26 02:06:43;;;;;;;15.77;2.47;;;2.20;99.90;;;;;;5053333;28;20045;-89
2022/02/26 02:09:11;;;;;;;12.45;2.20;;;2.20;99.90;;;;;;5053569;28;20066;-88
2022/02/26 02:11:38;;;;;;;14.00;2.00;;;2.30;99.90;;;;;;5052608;28;20045;-89
2022/02/26 02:14:05;;;;;;;15.15;2.70;;;2.40;99.90;;;;;;5053623;28;20057;-89
2022/02/26 02:16:35;;;;;;;17.10;2.67;;;2.30;99.90;;;;;;5052886;28;20053;-89
2022/02/26 02:19:10;;;;;;;14.80;2.10;;;2.30;99.90;;;;;;5054371;28;20053;-89
2022/02/26 02:21:37;;;;;;;15.38;2.85;;;2.30;99.90;;;;;;5052999;28;20071;-88
2022/02/26 02:24:05;;;;;;;23.63;2.63;;;2.10;99.90;;;;;;5054266;28;20076;-87
2022/02/26 02:26:36;;;;;;;23.90;3.50;;;2.00;99.90;;;;;;5053086;28;20055;-88
2022/02/26 02:29:03;;;;;;;13.00;3.03;;;2.00;99.90;;;;;;5055330;28;20055;-89
2022/02/26 02:31:30;;;;;;;15.38;2.75;;;1.80;99.90;;;;;;5054158;28;20045;-89
2022/02/26 02:33:57;;;;;;;24.98;2.95;;;1.80;99.90;;;;;;5053136;28;20049;-89
2022/02/26 02:36:24;;;;;;;18.05;2.40;;;1.80;99.90;;;;;;5052789;28;20053;-89
2022/02/26 02:38:50;;;;;;;15.88;2.55;;;1.70;99.90;;;;;;5053244;28;20135;-89
2022/02/26 02:41:18;;;;;;;17.02;2.08;;;1.70;99.90;;;;;;5052843;28;20128;-89
2022/02/26 02:43:45;;;;;;;19.30;2.53;;;1.70;99.90;;;;;;5052614;28;20075;-89
2022/02/26 02:46:12;;;;;;;15.45;2.20;;;1.60;99.90;;;;;;5052673;28;20053;-89
2022/02/26 02:48:39;;;;;;;17.65;2.95;;;1.50;99.90;;;;;;5053494;28;20049;-89
2022/02/26 02:51:06;;;;;;;29.52;2.63;;;1.40;99.90;;;;;;5052660;28;20055;-89
2022/02/26 02:53:33;;;;;;;16.48;2.50;;;1.40;99.90;;;;;;5052759;28;20557;-89
2022/02/26 02:56:00;;;;;;;13.88;1.90;;;1.50;99.90;;;;;;5053728;28;20493;-88
2022/02/26 02:58:32;;;;;;;15.27;2.00;;;1.40;99.90;;;;;;5052494;28;20052;-89
2022/02/26 03:00:59;;;;;;;12.70;2.05;;;1.30;99.90;;;;;;5052067;28;20059;-89
2022/02/26 03:03:26;;;;;;;10.50;2.25;;;1.40;99.90;;;;;;5052194;28;20131;-89
2022/02/26 03:05:54;;;;;;;16.05;2.40;;;1.50;99.90;;;;;;5052842;28;20049;-89
2022/02/26 03:08:24;;;;;;;9.32;2.20;;;1.60;99.90;;;;;;5052671;28;20041;-89
2022/02/26 03:10:56;;;;;;;13.57;2.35;;;1.80;99.90;;;;;;5051936;28;20123;-88
2022/02/26 03:13:25;;;;;;;14.10;3.33;;;1.90;99.90;;;;;;5052673;28;20072;-89
2022/02/26 03:15:53;;;;;;;13.15;2.25;;;1.90;99.90;;;;;;5052232;28;20416;-89
2022/02/26 03:18:21;;;;;;;12.45;2.25;;;1.90;99.90;;;;;;5053452;28;20088;-89
2022/02/26 03:20:48;;;;;;;11.18;2.38;;;1.90;99.90;;;;;;5053868;28;20103;-88
2022/02/26 03:23:16;;;;;;;10.40;2.00;;;2.00;99.90;;;;;;5051621;28;20079;-90
2022/02/26 03:25:44;;;;;;;12.68;1.75;;;2.00;99.90;;;;;;5052694;28;20052;-89
2022/02/26 03:28:11;;;;;;;16.40;2.65;;;2.10;99.90;;;;;;5052352;28;20053;-89
2022/02/26 03:30:39;;;;;;;12.23;1.98;;;2.10;99.90;;;;;;5052661;28;20058;-89
2022/02/26 03:33:08;;;;;;;14.93;2.72;;;2.10;99.90;;;;;;5053226;28;20132;-89
2022/02/26 03:35:35;;;;;;;13.40;2.17;;;2.10;99.90;;;;;;5051949;28;20076;-89
2022/02/26 03:38:02;;;;;;;16.60;2.35;;;2.20;99.90;;;;;;5052088;28;20048;-89
2022/02/26 03:40:33;;;;;;;16.27;2.97;;;2.40;99.90;;;;;;5052982;28;20045;-89
2022/02/26 03:43:00;;;;;;;8.10;1.77;;;2.50;99.90;;;;;;5053444;28;20080;-88
2022/02/26 03:45:26;;;;;;;14.00;2.10;;;2.70;99.90;;;;;;5052174;28;20049;-89
2022/02/26 03:47:54;;;;;;;18.63;2.20;;;2.70;99.90;;;;;;5051579;28;20048;-89
2022/02/26 03:50:21;;;;;;;15.18;2.35;;;2.80;99.90;;;;;;5053073;28;20128;-89
2022/02/26 03:52:47;;;;;;;12.23;1.77;;;2.80;99.90;;;;;;5052898;28;20048;-89
2022/02/26 03:55:14;;;;;;;11.20;1.92;;;2.80;99.90;;;;;;5052960;28;20056;-88
2022/02/26 03:57:46;;;;;;;14.25;2.05;;;2.90;99.90;;;;;;5051469;28;20057;-89
2022/02/26 04:00:13;;;;;;;14.85;1.67;;;2.80;99.90;;;;;;5051829;28;20057;-89
2022/02/26 04:02:53;;;;;;;12.07;2.33;;;2.90;99.90;;;;;;5052123;28;20049;-88
2022/02/26 04:05:20;;;;;;;9.05;1.85;;;2.90;99.90;;;;;;5052818;28;20088;-91
2022/02/26 04:07:47;;;;;;;21.67;2.95;;;2.90;99.90;;;;;;5052913;28;20132;-90
2022/02/26 04:10:13;;;;;;;10.55;1.70;;;3.00;99.90;;;;;;5051176;28;20053;-89
2022/02/26 04:12:40;;;;;;;14.93;2.33;;;3.00;99.90;;;;;;5052463;28;20049;-89
2022/02/26 04:15:08;;;;;;;18.63;2.20;;;3.00;99.90;;;;;;5051821;28;20408;-88
2022/02/26 04:17:34;;;;;;;9.95;1.70;;;3.10;99.90;;;;;;5051724;28;20079;-89
2022/02/26 04:20:02;;;;;;;22.13;3.85;;;3.10;99.90;;;;;;5052339;28;20041;-88
2022/02/26 04:22:28;;;;;;;18.67;2.60;;;3.10;99.90;;;;;;5051467;28;20053;-89
2022/02/26 04:24:55;;;;;;;14.43;2.55;;;3.10;99.90;;;;;;5051691;28;20047;-89
2022/02/26 04:27:22;;;;;;;10.30;2.33;;;3.10;99.90;;;;;;5052430;28;20056;-89
2022/02/26 04:29:49;;;;;;;15.15;2.20;;;3.20;99.90;;;;;;5051786;28;20072;-89
2022/02/26 04:32:37;;;;;;;16.50;2.38;;;3.10;99.90;;;;;;5051729;28;20048;-89
2022/02/26 04:35:05;;;;;;;9.00;2.17;;;3.10;99.90;;;;;;5053024;28;20053;-89
2022/02/26 04:37:32;;;;;;;14.20;2.28;;;3.20;99.90;;;;;;5054700;28;20432;-89
2022/02/26 04:39:59;;;;;;;18.42;2.95;;;3.10;99.90;;;;;;5054928;28;20047;-89
2022/02/26 04:42:26;;;;;;;8.52;1.60;;;3.10;99.90;;;;;;5055373;28;20140;-89
2022/02/26 04:44:53;;;;;;;14.65;2.15;;;3.10;99.90;;;;;;5054829;28;20570;-89
2022/02/26 04:47:19;;;;;;;10.10;1.90;;;3.10;99.90;;;;;;5055072;28;20141;-89
2022/02/26 04:49:46;;;;;;;15.57;2.00;;;3.10;99.90;;;;;;5054784;28;20052;-89
2022/02/26 04:52:13;;;;;;;15.18;2.30;;;3.10;99.90;;;;;;5054852;28;20049;-89
2022/02/26 04:54:40;;;;;;;9.07;1.85;;;3.10;99.90;;;;;;5055162;28;20049;-88
2022/02/26 04:57:07;;;;;;;17.40;2.20;;;3.10;99.90;;;;;;5055204;28;20056;-89
2022/02/26 04:59:34;;;;;;;10.95;2.13;;;3.10;99.90;;;;;;5054463;28;20136;-88
2022/02/26 05:02:00;;;;;;;12.35;2.25;;;3.10;99.90;;;;;;5054496;28;20049;-90
2022/02/26 05:04:27;;;;;;;14.43;2.15;;;3.20;99.90;;;;;;5054507;28;20049;-88
2022/02/26 05:06:54;;;;;;;21.23;2.65;;;3.20;99.90;;;;;;5054524;28;20501;-88
2022/02/26 05:09:21;;;;;;;10.73;2.05;;;3.10;99.90;;;;;;5054687;28;20059;-89
2022/02/26 05:11:48;;;;;;;16.73;2.58;;;3.20;99.90;;;;;;5054590;28;20469;-89
2022/02/26 05:14:15;;;;;;;17.02;2.63;;;3.20;99.90;;;;;;5054234;28;20132;-89
2022/02/26 05:16:43;;;;;;;12.50;2.30;;;3.20;99.90;;;;;;5054435;28;20045;-89
2022/02/26 05:19:10;;;;;;;14.25;2.20;;;3.20;99.90;;;;;;5054373;28;20132;-89
2022/02/26 05:21:37;;;;;;;11.55;2.13;;;3.20;99.90;;;;;;5055263;28;20045;-88
2022/02/26 05:24:05;;;;;;;10.68;2.22;;;3.20;99.90;;;;;;5055258;28;20049;-89
2022/02/26 05:26:33;;;;;;;20.38;2.40;;;3.20;99.90;;;;;;5054069;28;20113;-89
2022/02/26 05:29:00;;;;;;;15.70;2.58;;;3.20;99.90;;;;;;5054380;28;20108;-88
2022/02/26 05:31:27;;;;;;;18.85;2.40;;;3.20;99.90;;;;;;5053953;28;20523;-87
2022/02/26 05:33:54;;;;;;;13.13;2.25;;;3.20;99.90;;;;;;5053877;28;20114;-89
2022/02/26 05:36:21;;;;;;;62.45;4.63;;;3.20;99.90;;;;;;5054243;28;20096;-88
2022/02/26 05:38:48;;;;;;;12.98;2.10;;;3.20;99.90;;;;;;5054019;28;20052;-89
2022/02/26 05:41:15;;;;;;;12.88;2.00;;;3.20;99.90;;;;;;5053612;28;20135;-89
2022/02/26 05:43:42;;;;;;;13.32;2.30;;;3.30;99.90;;;;;;5053837;28;20053;-89
2022/02/26 05:46:10;;;;;;;10.05;2.17;;;3.20;99.90;;;;;;5053355;28;20052;-89
2022/02/26 05:48:38;;;;;;;14.52;2.40;;;3.30;99.90;;;;;;5054010;28;20056;-89
2022/02/26 05:51:05;;;;;;;11.55;2.28;;;3.20;99.90;;;;;;5054750;28;20044;-89
2022/02/26 05:53:31;;;;;;;18.20;3.38;;;3.10;99.90;;;;;;5053797;28;20104;-89
2022/02/26 05:55:58;;;;;;;14.88;2.58;;;3.20;99.90;;;;;;5054342;28;20130;-89
2022/02/26 05:58:25;;;;;;;15.30;3.95;;;3.20;99.90;;;;;;5054701;28;20088;-89
2022/02/26 06:00:52;;;;;;;12.65;2.20;;;3.20;99.90;;;;;;5053324;28;20053;-89
2022/02/26 06:03:19;;;;;;;12.95;2.97;;;3.10;99.90;;;;;;5054449;28;20049;-89
2022/02/26 06:05:46;;;;;;;16.75;2.58;;;3.10;99.90;;;;;;5054361;28;20055;-89
2022/02/26 06:08:13;;;;;;;11.13;1.83;;;3.10;99.90;;;;;;5054136;28;20049;-89
2022/02/26 06:10:40;;;;;;;22.70;2.58;;;3.20;99.90;;;;;;5055885;28;20091;-88
2022/02/26 06:13:22;;;;;;;15.25;1.98;;;3.30;99.90;;;;;;5112573;27;20372;-79
2022/02/26 06:15:49;;;;;;;16.95;2.25;;;3.10;99.90;;;;;;5112290;28;20071;-80
2022/02/26 06:18:16;;;;;;;18.52;2.45;;;3.00;99.90;;;;;;5111908;28;20067;-80
2022/02/26 06:20:46;;;;;;;21.27;3.22;;;3.10;99.90;;;;;;5113042;27;20157;-81
2022/02/26 06:23:12;;;;;;;16.45;2.22;;;3.00;99.90;;;;;;5112029;28;20481;-80
2022/02/26 06:25:39;;;;;;;16.35;2.70;;;3.10;99.90;;;;;;5111805;28;20048;-80
2022/02/26 06:28:06;;;;;;;22.90;3.08;;;3.10;99.90;;;;;;5111789;28;20480;-80
2022/02/26 06:30:33;;;;;;;17.65;2.70;;;3.10;99.90;;;;;;5111481;28;20098;-79
2022/02/26 06:32:59;;;;;;;11.07;2.58;;;3.20;99.90;;;;;;5111479;28;20126;-79
2022/02/26 06:35:26;;;;;;;16.42;2.28;;;3.30;99.90;;;;;;5111763;28;20084;-80
2022/02/26 06:37:53;;;;;;;21.60;3.13;;;3.30;99.90;;;;;;5111446;28;20062;-79
2022/02/26 06:40:21;;;;;;;22.33;2.90;;;3.30;99.90;;;;;;5112745;28;20135;-80
2022/02/26 06:42:48;;;;;;;17.33;3.05;;;3.30;99.90;;;;;;5112275;28;20052;-79
2022/02/26 06:45:18;;;;;;;21.55;2.88;;;3.40;99.90;;;;;;5111627;28;20047;-79
2022/02/26 06:47:44;;;;;;;18.33;2.03;;;3.40;99.90;;;;;;5111890;28;20139;-80
2022/02/26 06:50:11;;;;;;;15.43;2.63;;;3.40;99.90;;;;;;5111936;28;20090;-80
2022/02/26 06:52:38;;;;;;;16.20;2.22;;;3.50;99.90;;;;;;5111140;28;20104;-80
2022/02/26 06:55:05;;;;;;;14.82;2.58;;;3.50;99.90;;;;;;5111126;28;20135;-80
2022/02/26 06:57:44;;;;;;;16.48;1.92;;;3.50;99.90;;;;;;5049739;28;20529;-79
2022/02/26 07:00:12;;;;;;;22.70;4.80;;;3.60;99.90;;;;;;5049806;28;20265;-79
2022/02/26 07:02:39;;;;;;;21.08;3.05;;;3.60;99.90;;;;;;5049641;28;20048;-80
2022/02/26 07:05:08;;;;;;;14.05;3.03;;;3.60;99.90;;;;;;5050136;28;20057;-81
2022/02/26 07:07:35;;;;;;;15.32;2.70;;;3.60;99.90;;;;;;5050716;28;20081;-80
2022/02/26 07:10:08;;;;;;;16.05;2.50;;;3.70;99.90;;;;;;5050601;28;20609;-80
2022/02/26 07:12:38;;;;;;;;;;;3.70;99.90;;;;;;5051253;28;20076;-81
2022/02/26 07:15:06;;;;;;;17.08;2.22;;;3.80;99.90;;;;;;5045306;28;19962;-81
2022/02/26 07:17:33;;;;;;;19.23;2.67;;;3.80;99.90;;;;;;5115132;28;20071;-79
2022/02/26 07:19:59;;;;;;;13.13;3.25;;;3.90;99.90;;;;;;5110823;28;20135;-81
2022/02/26 07:22:26;;;;;;;11.32;1.85;;;4.00;99.90;;;;;;5105296;28;20130;-80
2022/02/26 07:24:53;;;;;;;15.23;2.58;;;4.00;99.90;;;;;;5086844;28;20136;-80
2022/02/26 07:27:20;;;;;;;14.00;1.98;;;4.10;99.90;;;;;;5080106;28;20071;-79
2022/02/26 07:29:46;;;;;;;18.63;2.72;;;4.20;99.90;;;;;;5085415;28;20131;-79
2022/02/26 07:32:13;;;;;;;16.63;2.78;;;4.30;99.90;;;;;;5096585;28;20122;-80
2022/02/26 07:34:42;;;;;;;16.83;2.53;;;4.30;99.90;;;;;;5096706;28;20135;-80
2022/02/26 07:37:09;;;;;;;14.57;1.83;;;4.40;99.90;;;;;;5096306;28;20504;-80
2022/02/26 07:39:36;;;;;;;15.73;2.83;;;4.60;99.90;;;;;;5096422;28;20080;-80
2022/02/26 07:42:04;;;;;;;12.18;2.30;;;4.70;99.90;;;;;;5096484;28;20076;-79
2022/02/26 07:44:31;;;;;;;19.75;2.58;;;4.70;99.90;;;;;;5096208;28;20134;-80
2022/02/26 07:46:58;;;;;;;17.75;2.08;;;4.70;99.90;;;;;;5097041;28;20127;-79
2022/02/26 07:49:25;;;;;;;11.63;2.40;;;4.60;99.90;;;;;;5097780;28;20048;-79
2022/02/26 07:51:53;;;;;;;13.75;2.13;;;4.80;99.90;;;;;;5096002;28;20044;-79
2022/02/26 07:54:20;;;;;;;17.15;2.25;;;4.70;99.90;;;;;;5097675;28;20051;-80
2022/02/26 07:56:49;;;;;;;16.20;2.42;;;4.70;99.90;;;;;;5096176;28;20105;-79
2022/02/26 07:59:15;;;;;;;16.55;2.60;;;4.80;99.90;;;;;;5096856;28;20087;-79
2022/02/26 08:01:42;;;;;;;21.77;2.92;;;4.40;99.90;;;;;;5096848;28;20496;-80
2022/02/26 08:04:11;;;;;;;27.52;3.22;;;4.40;99.90;;;;;;5095846;28;20079;-80
2022/02/26 08:06:38;;;;;;;13.38;2.70;;;4.50;99.90;;;;;;5095835;28;20135;-79
2022/02/26 08:09:05;;;;;;;15.85;3.38;;;4.40;99.90;;;;;;5095563;28;20472;-79
2022/02/26 08:11:32;;;;;;;13.82;2.25;;;4.30;99.90;;;;;;5096735;28;20504;-80
2022/02/26 08:13:59;;;;;;;11.82;2.25;;;4.50;99.90;;;;;;5095913;28;20127;-80
2022/02/26 08:16:27;;;;;;;12.95;2.72;;;4.60;99.90;;;;;;5095956;28;20080;-80
2022/02/26 08:18:55;;;;;;;13.30;2.05;;;4.60;99.90;;;;;;5095894;28;20044;-79
2022/02/26 08:21:22;;;;;;;21.08;3.17;;;4.80;99.90;;;;;;5096803;28;20044;-82
2022/02/26 08:23:50;;;;;;;12.98;2.25;;;4.80;99.90;;;;;;5095470;28;20493;-83
2022/02/26 08:26:18;;;;;;;6.85;2.10;;;4.90;99.90;;;;;;5096357;28;20135;-83
2022/02/26 08:28:46;;;;;;;9.90;2.47;;;5.00;99.90;;;;;;5094618;28;20058;-82
2022/02/26 08:31:12;;;;;;;12.80;2.25;;;4.90;99.90;;;;;;5096351;28;20124;-82
2022/02/26 08:33:39;;;;;;;10.80;1.70;;;4.90;99.90;;;;;;5098837;28;20044;-83
2022/02/26 08:36:06;;;;;;;12.88;2.22;;;4.90;99.90;;;;;;5095340;28;20079;-81
2022/02/26 08:38:33;;;;;;;17.58;2.58;;;4.90;99.90;;;;;;5097220;28;20528;-83
2022/02/26 08:41:00;;;;;;;21.98;2.33;;;5.00;99.90;;;;;;5096445;28;20044;-82
2022/02/26 08:43:27;;;;;;;17.23;2.65;;;4.90;99.90;;;;;;5096981;28;20451;-83
2022/02/26 08:45:54;;;;;;;14.27;2.58;;;4.90;99.90;;;;;;5085720;28;20485;-82
2022/02/26 08:48:21;;;;;;;12.13;2.15;;;4.80;99.90;;;;;;5084143;28;20127;-84
2022/02/26 08:50:48;;;;;;;12.52;1.90;;;4.70;99.90;;;;;;5084599;28;20063;-84
2022/02/26 08:53:15;;;;;;;14.00;2.30;;;4.90;99.90;;;;;;5085674;28;20131;-82
2022/02/26 08:55:42;;;;;;;8.70;1.92;;;5.10;99.90;;;;;;5083838;28;20687;-84
2022/02/26 08:58:09;;;;;;;8.15;1.90;;;5.30;99.90;;;;;;5084585;28;20059;-84
2022/02/26 09:01:07;;;;;;;16.42;2.08;;;5.40;99.90;;;;;;5084625;28;20086;-80
2022/02/26 09:03:38;;;;;;;12.38;2.67;;;5.60;99.90;;;;;;5074065;28;20127;-80
2022/02/26 09:06:07;;;;;;;15.20;2.55;;;5.80;99.90;;;;;;5075423;28;20052;-80
2022/02/26 09:08:38;;;;;;;11.25;2.17;;;5.60;99.90;;;;;;5075026;28;20052;-79
2022/02/26 09:11:32;;;;;;;10.52;2.00;;;5.50;99.90;;;;;;5074762;28;20139;-80
2022/02/26 09:14:03;;;;;;;10.13;2.10;;;5.60;99.90;;;;;;5075294;28;20433;-83
2022/02/26 09:16:31;;;;;;;14.45;3.00;;;5.50;99.90;;;;;;5079198;28;20040;-82
2022/02/26 09:18:59;;;;;;;13.65;2.65;;;5.30;99.90;;;;;;5076862;28;20547;-83
2022/02/26 09:21:26;;;;;;;14.57;2.20;;;5.00;99.90;;;;;;5076663;28;20056;-83
2022/02/26 09:23:53;;;;;;;14.68;2.65;;;4.80;99.90;;;;;;5076922;28;20468;-80
2022/02/26 09:26:22;;;;;;;15.73;2.22;;;4.80;99.90;;;;;;5077946;28;20083;-79
2022/02/26 09:28:49;;;;;;;11.00;1.77;;;5.00;99.90;;;;;;5077079;28;20083;-80
2022/02/26 09:31:18;;;;;;;10.90;2.20;;;5.20;99.90;;;;;;5077790;28;20052;-80
2022/02/26 09:33:46;;;;;;;14.00;2.38;;;5.50;99.90;;;;;;5078203;28;20048;-79
2022/02/26 09:36:15;;;;;;;20.23;3.60;;;5.60;99.90;;;;;;5078536;28;20131;-80
2022/02/26 09:38:43;;;;;;;21.10;4.05;;;5.80;99.90;;;;;;5079138;28;20040;-80
2022/02/26 09:41:13;;;;;;;14.70;2.22;;;5.80;99.90;;;;;;5079901;28;20068;-81
2022/02/26 09:43:41;;;;;;;13.48;2.10;;;5.70;99.90;;;;;;5079617;28;20105;-80
2022/02/26 09:46:08;;;;;;;14.60;3.58;;;5.80;99.90;;;;;;5083457;28;20075;-81
2022/02/26 09:48:36;;;;;;;42.80;21.42;;;6.00;99.90;;;;;;5077925;28;20480;-79
2022/02/26 09:51:03;;;;;;;20.40;8.23;;;5.80;99.90;;;;;;5076258;28;20143;-80
2022/02/26 09:53:30;;;;;;;10.13;2.00;;;5.70;99.90;;;;;;5076191;28;20045;-79
2022/02/26 09:56:00;;;;;;;13.60;3.35;;;5.60;99.90;;;;;;5077207;28;20075;-80
2022/02/26 09:58:29;;;;;;;12.57;2.17;;;6.00;99.90;;;;;;5078177;28;20049;-80
2022/02/26 10:00:58;;;;;;;16.80;3.10;;;6.20;99.90;;;;;;5077099;28;20382;-80
2022/02/26 10:03:27;;;;;;;15.60;2.50;;;6.00;99.90;;;;;;5078237;28;20056;-80
2022/02/26 10:06:15;;;;;;;13.32;2.13;;;6.00;99.90;;;;;;5075802;28;20052;-79
2022/02/26 10:08:42;;;;;;;13.57;1.75;;;6.00;99.90;;;;;;5077293;28;20071;-81
2022/02/26 10:11:29;;;;;;;14.20;2.13;;;6.10;99.90;;;;;;5074744;28;20506;-79
2022/02/26 10:14:08;;;;;;;13.48;2.00;;;6.20;99.90;;;;;;5076117;28;20469;-80
2022/02/26 10:16:48;;;;;;;14.40;2.15;;;6.30;99.90;;;;;;5077333;28;20072;-79
2022/02/26 10:19:35;;;;;;;14.65;2.45;;;6.50;99.90;;;;;;5077121;28;20048;-79
2022/02/26 10:22:08;;;;;;;16.40;3.15;;;6.10;99.90;;;;;;5076166;28;20052;-79
2022/02/26 10:24:37;;;;;;;17.20;1.95;;;5.80;99.90;;;;;;5077449;28;20048;-80
2022/02/26 10:27:09;;;;;;;22.67;2.50;;;6.10;99.90;;;;;;5081593;28;20044;-79
2022/02/26 10:29:39;;;;;;;10.73;1.92;;;6.40;99.90;;;;;;5078235;28;20052;-80
2022/02/26 10:32:08;;;;;;;14.55;3.13;;;6.50;99.90;;;;;;5079414;28;20045;-82
2022/02/26 10:34:39;;;;;;;15.00;2.17;;;6.50;99.90;;;;;;5079971;28;20493;-82
2022/02/26 10:37:17;;;;;;;12.77;3.05;;;6.00;99.90;;;;;;5076855;28;20132;-82
2022/02/26 10:39:54;;;;;;;14.98;2.92;;;6.20;99.90;;;;;;5078795;28;20068;-83
2022/02/26 10:42:24;;;;;;;12.68;2.30;;;6.50;99.90;;;;;;5078524;28;20444;-83
2022/02/26 10:45:02;;;;;;;14.00;1.80;;;7.00;99.90;;;;;;5081227;28;20054;-82
2022/02/26 10:47:31;;;;;;;12.40;1.90;;;7.30;99.90;;;;;;5079639;28;20048;-83
2022/02/26 10:49:58;;;;;;;17.15;3.67;;;7.50;99.90;;;;;;5080624;28;20317;-82
2022/02/26 10:52:33;;;;;;;12.25;3.28;;;6.90;99.90;;;;;;5080566;28;20049;-83
2022/02/26 10:55:06;;;;;;;11.23;2.50;;;7.00;99.90;;;;;;5081721;28;20050;-82
2022/02/26 10:57:33;;;;;;;13.65;6.28;;;6.80;99.90;;;;;;5083266;28;20057;-82
2022/02/26 11:00:00;;;;;;;12.02;2.33;;;6.50;99.90;;;;;;5086110;28;20055;-82
2022/02/26 11:02:27;;;;;;;10.68;2.45;;;6.80;99.90;;;;;;5084471;28;20076;-81
2022/02/26 11:04:56;;;;;;;11.93;1.77;;;7.20;99.90;;;;;;5083151;28;20074;-83
2022/02/26 11:07:26;;;;;;;7.28;1.95;;;7.70;99.90;;;;;;5081791;28;20048;-82
2022/02/26 11:09:53;;;;;;;8.60;2.08;;;8.00;99.90;;;;;;5080743;28;20048;-83
2022/02/26 11:12:25;;;;;;;13.57;2.40;;;8.20;99.90;;;;;;5081586;28;20084;-82
2022/02/26 11:15:00;;;;;;;20.10;2.67;;;7.70;99.90;;;;;;5083300;28;20083;-85
2022/02/26 11:17:30;;;;;;;12.10;2.28;;;7.80;99.90;;;;;;5079854;28;20105;-82
2022/02/26 11:20:00;;;;;;;6.65;1.60;;;8.00;99.90;;;;;;5080157;28;20080;-82
2022/02/26 11:22:27;;;;;;;9.10;1.92;;;8.10;99.90;;;;;;5081163;28;20049;-82
2022/02/26 11:24:55;;;;;;;13.00;2.55;;;7.80;99.90;;;;;;5083295;28;20048;-82
2022/02/26 11:27:24;;;;;;;21.20;2.42;;;7.70;99.90;;;;;;5081732;28;20083;-82
2022/02/26 11:29:52;;;;;;;14.23;3.58;;;7.20;99.90;;;;;;5080661;28;20488;-82
2022/02/26 11:32:21;;;;;;;14.52;3.03;;;7.00;99.90;;;;;;5081988;28;20080;-82
2022/02/26 11:34:48;;;;;;;14.25;2.17;;;7.30;99.90;;;;;;5080287;28;20052;-83
2022/02/26 11:37:17;;;;;;;57.90;28.98;;;7.90;99.90;;;;;;5080407;28;20102;-83
2022/02/26 11:39:49;;;;;;;16.02;7.03;;;8.30;99.90;;;;;;5079462;28;20179;-83
2022/02/26 11:42:16;;;;;;;13.52;2.03;;;8.30;99.90;;;;;;5078171;28;20067;-83
2022/02/26 11:44:53;;;;;;;14.02;2.05;;;7.90;99.90;;;;;;5078463;28;20570;-83
2022/02/26 11:47:21;;;;;;;11.90;2.38;;;7.90;99.90;;;;;;5079113;28;20076;-83
2022/02/26 11:49:58;;;;;;;14.02;2.70;;;7.90;99.90;;;;;;5077395;28;20060;-83
2022/02/26 11:52:55;;;;;;;9.77;2.58;;;7.70;99.90;;;;;;5077905;28;20052;-84
2022/02/26 11:55:36;;;;;;;21.98;8.30;;;7.90;99.90;;;;;;5077663;28;20504;-84
2022/02/26 11:58:15;;;;;;;29.55;11.77;;;8.70;99.90;;;;;;5077163;28;20083;-83
2022/02/26 12:00:59;;;;;;;7.65;2.22;;;9.60;99.90;;;;;;5078042;28;20503;-82
2022/02/26 12:03:28;;;;;;;12.90;2.25;;;11.00;94.70;;;;;;5076805;28;20059;-83
2022/02/26 12:06:11;;;;;;;15.73;7.70;;;12.80;88.40;;;;;;5077042;28;20049;-83
2022/02/26 12:08:39;;;;;;;125.63;73.83;;;12.20;83.20;;;;;;5076383;28;20045;-83
2022/02/26 12:11:30;;;;;;;103.05;53.55;;;12.10;81.20;;;;;;5077466;28;20087;-83
2022/02/26 12:14:02;;;;;;;174.15;96.57;;;11.30;82.10;;;;;;5081372;28;20067;-83
2022/02/26 12:16:39;;;;;;;11.23;2.72;;;9.60;86.70;;;;;;5078651;28;20146;-83
2022/02/26 12:19:23;;;;;;;15.27;2.78;;;8.90;92.20;;;;;;5077485;28;20044;-84
2022/02/26 12:21:57;;;;;;;13.20;2.28;;;8.80;95.30;;;;;;5077382;28;20048;-83
2022/02/26 12:24:45;;;;;;;8.43;2.03;;;8.70;95.60;;;;;;5077623;28;20053;-84
2022/02/26 12:27:12;;;;;;;22.45;7.68;;;8.80;94.70;;;;;;5078093;28;20170;-83
2022/02/26 12:29:39;;;;;;;10.32;3.67;;;8.50;96.40;;;;;;5078637;28;20080;-82
2022/02/26 12:32:08;;;;;;;20.05;8.18;;;7.90;99.90;;;;;;5078558;28;20083;-83
2022/02/26 12:34:59;;;;;;;12.10;2.78;;;8.50;99.90;;;;;;5079373;28;20095;-82
2022/02/26 12:37:28;;;;;;;13.38;3.08;;;8.60;98.80;;;;;;5061117;22;20497;-87
2022/02/26 12:40:01;;;;;;;11.90;2.65;;;8.30;99.00;;;;;;5033489;28;20049;-88
2022/02/26 12:42:29;;;;;;;;;;;8.50;98.70;;;;;;5034785;28;20049;-87
2022/02/26 12:44:59;;;;;;;12.82;3.55;;;9.00;97.20;;;;;;5034891;28;19921;-88
2022/02/26 12:47:27;;;;;;;13.38;2.40;;;8.60;98.90;;;;;;5033491;28;20049;-89
2022/02/26 12:49:54;;;;;;;10.68;2.10;;;8.40;99.90;;;;;;5033144;28;20042;-89
2022/02/26 12:52:30;;;;;;;14.48;4.47;;;8.60;99.90;;;;;;5033223;28;20080;-88
2022/02/26 12:54:57;;;;;;;9.65;2.45;;;8.20;99.90;;;;;;5033093;28;20050;-89
2022/02/26 12:57:37;;;;;;;11.55;2.42;;;8.20;99.90;;;;;;5033125;28;20516;-88